Time;durP1;ratioP1;P1;durP2;ratioP2;P2;SDS_P1;SDS_P2;PMS_P1;PMS_P2;Temp;Humidity;BMP_temperature;BMP_pressure;BME280_temperature;BME280_humidity;BME280_pressure;Samples;Min_cycle;Max_cycle;Signal;HPM_P1;HPM_P2
2022/11/04 00:00:49;;;;;;;15.90;8.75;;;;;;;15.02;89.12;98184.72;5175339;27;20372;-95
2022/11/04 00:03:14;;;;;;;16.20;9.07;;;;;;;15.07;89.14;98196.03;5145972;27;20107;-95
2022/11/04 00:05:40;;;;;;;13.55;9.10;;;;;;;14.91;89.47;98178.13;5146003;27;20047;-92
2022/11/04 00:14:11;;;;;;;15.07;8.70;;;;;;;14.87;90.53;98164.97;5091211;27;20889;-92
2022/11/04 00:29:10;;;;;;;17.42;9.20;;;;;;;14.94;90.96;98137.81;5091140;27;20867;-94
2022/11/04 00:34:35;;;;;;;16.67;9.10;;;;;;;15.00;90.27;98110.66;5100351;27;20387;-94
2022/11/04 00:37:02;;;;;;;14.05;8.48;;;;;;;15.13;89.98;98118.88;5102241;28;20059;-94
2022/11/04 00:39:28;;;;;;;13.63;8.85;;;;;;;15.06;90.03;98101.44;5098705;28;20040;-95
2022/11/04 00:41:54;;;;;;;15.50;8.18;;;;;;;15.21;88.74;98099.72;5106917;28;20040;-94
2022/11/04 00:44:20;;;;;;;17.33;8.52;;;;;;;15.27;87.88;98085.97;5101728;28;20094;-95
2022/11/04 00:46:46;;;;;;;19.08;8.77;;;;;;;15.41;86.97;98082.50;5102411;28;20438;-95
2022/11/04 00:49:12;;;;;;;13.98;8.48;;;;;;;15.47;87.00;98086.66;5106411;28;20051;-94
2022/11/04 00:51:40;;;;;;;12.35;7.72;;;;;;;15.54;86.82;98096.91;5102113;28;20127;-95
2022/11/04 00:54:09;;;;;;;13.73;8.27;;;;;;;15.45;86.50;98075.16;5105629;28;20040;-96
2022/11/04 00:56:37;;;;;;;13.50;7.55;;;;;;;15.45;86.13;98075.16;5103174;28;20119;-94
2022/11/04 00:59:04;;;;;;;14.80;8.25;;;;;;;15.56;86.10;98075.41;5109586;28;20068;-96
2022/11/04 01:01:29;;;;;;;13.48;7.35;;;;;;;15.60;85.88;98080.47;5104614;28;20040;-94
2022/11/04 01:03:56;;;;;;;14.75;7.72;;;;;;;15.74;85.04;98082.41;5105322;28;20043;-96
2022/11/04 01:06:24;;;;;;;13.40;7.95;;;;;;;15.68;85.23;98055.94;5105299;28;20438;-94
2022/11/04 01:08:56;;;;;;;11.98;7.70;;;;;;;15.70;85.01;98067.41;5101783;28;20131;-96
2022/11/04 01:11:27;;;;;;;14.82;9.48;;;;;;;15.78;85.04;98066.97;5108459;28;20055;-96
2022/11/04 01:13:53;;;;;;;13.10;8.32;;;;;;;15.89;84.40;98067.19;5104069;28;20036;-93
2022/11/04 01:16:20;;;;;;;15.52;8.77;;;;;;;15.97;83.76;98056.03;5106860;28;20105;-95
2022/11/04 01:18:46;;;;;;;17.42;8.60;;;;;;;15.95;83.56;98053.44;5104857;28;20075;-95
2022/11/04 01:21:14;;;;;;;13.95;7.15;;;;;;;16.01;83.85;98055.75;5107212;28;20397;-94
2022/11/04 01:23:42;;;;;;;15.45;8.32;;;;;;;16.02;84.10;98053.91;5108176;28;20036;-95
2022/11/04 01:26:11;;;;;;;15.18;8.18;;;;;;;15.97;84.78;98072.97;5106925;28;20036;-95
2022/11/04 01:28:38;;;;;;;15.77;8.35;;;;;;;16.10;84.35;98062.38;5107235;28;20039;-93
2022/11/04 01:31:05;;;;;;;15.85;8.85;;;;;;;16.13;84.07;98055.94;5107558;28;20086;-94
2022/11/04 01:33:31;;;;;;;20.60;8.48;;;;;;;16.05;84.40;98037.66;5111968;28;20062;-92
2022/11/04 01:35:59;;;;;;;14.50;8.45;;;;;;;16.05;84.64;98037.66;5110306;28;20119;-94
2022/11/04 01:38:25;;;;;;;21.90;9.23;;;;;;;16.14;84.45;98049.63;5109267;28;20036;-94
2022/11/04 01:40:51;;;;;;;14.75;7.68;;;;;;;16.29;84.67;98061.25;5108392;28;20094;-96
2022/11/04 01:43:20;;;;;;;13.98;8.38;;;;;;;16.25;84.83;98054.34;5110997;28;20036;-94
2022/11/04 01:45:50;;;;;;;12.85;8.60;;;;;;;16.16;84.79;98037.84;5093278;28;20047;-95
2022/11/04 01:48:21;;;;;;;16.98;8.68;;;;;;;16.26;85.04;98046.19;5092712;28;20445;-94
2022/11/04 01:50:49;;;;;;;18.30;8.88;;;;;;;16.33;85.25;98033.25;5089090;28;20036;-94
2022/11/04 01:53:20;;;;;;;15.45;8.88;;;;;;;16.25;85.35;98024.84;5086363;28;20033;-92
2022/11/04 01:55:50;;;;;;;17.80;8.70;;;;;;;16.26;86.99;98002.41;5093264;28;20502;-94
2022/11/04 01:58:20;;;;;;;18.55;8.85;;;;;;;16.08;88.30;97989.19;5090600;28;20044;-92
2022/11/04 02:00:47;;;;;;;16.48;8.88;;;;;;;16.02;89.38;97981.50;5088174;28;20048;-93
2022/11/04 02:03:18;;;;;;;19.08;10.10;;;;;;;16.05;91.10;97973.28;5093364;28;20046;-95
2022/11/04 02:05:45;;;;;;;16.33;9.38;;;;;;;15.96;93.83;97963.09;5085276;28;20047;-95
2022/11/04 02:08:13;;;;;;;18.92;9.43;;;;;;;15.73;95.74;97943.97;5089720;28;20040;-94
2022/11/04 02:10:44;;;;;;;17.30;9.13;;;;;;;15.69;95.82;97946.88;5094001;28;20040;-95
2022/11/04 02:13:10;;;;;;;16.50;9.65;;;;;;;15.63;97.62;97944.56;5094086;28;20047;-94
2022/11/04 02:15:44;;;;;;;16.40;9.93;;;;;;;15.60;97.35;97946.47;5094073;28;20048;-94
2022/11/04 02:18:43;;;;;;;18.10;9.95;;;;;;;15.51;97.83;97922.06;5094324;28;20048;-95
2022/11/04 02:21:25;;;;;;;18.70;10.40;;;;;;;15.48;98.92;97931.13;5093076;28;20046;-94
2022/11/04 02:24:42;;;;;;;20.42;10.35;;;;;;;15.43;99.25;97916.31;5088817;28;20567;-95
2022/11/04 02:27:32;;;;;;;17.83;9.50;;;;;;;15.51;100.00;97940.84;5061983;28;20479;-93
2022/11/04 02:30:09;;;;;;;14.50;9.75;;;;;;;15.40;100.00;97917.38;5091217;28;20047;-94
2022/11/04 02:33:12;;;;;;;20.98;10.23;;;;;;;15.37;100.00;97929.09;5091872;28;20493;-94
2022/11/04 02:35:43;;;;;;;23.05;10.50;;;;;;;15.35;100.00;97933.72;5056972;28;20098;-94
2022/11/04 02:38:18;;;;;;;21.13;10.70;;;;;;;15.29;100.00;97907.28;5055993;28;20049;-94
2022/11/04 02:40:55;;;;;;;22.58;11.48;;;;;;;15.13;100.00;97883.22;5055186;28;20458;-94
2022/11/04 02:43:29;;;;;;;23.48;11.45;;;;;;;14.98;100.00;97865.41;5048343;28;20048;-93
2022/11/04 02:46:01;;;;;;;20.02;10.88;;;;;;;14.98;100.00;97885.03;5051252;28;20053;-95
2022/11/04 02:48:35;;;;;;;21.92;11.77;;;;;;;14.79;100.00;97860.28;5051742;28;20103;-94
2022/11/04 02:51:06;;;;;;;24.45;12.13;;;;;;;14.81;100.00;97863.72;5051963;28;20049;-93
2022/11/04 02:53:40;;;;;;;26.52;12.65;;;;;;;14.76;100.00;97868.50;5052542;28;20544;-95
2022/11/04 02:56:10;;;;;;;21.58;11.48;;;;;;;14.80;100.00;97870.03;5052983;28;20119;-94
2022/11/04 02:58:42;;;;;;;19.65;11.85;;;;;;;14.78;100.00;97867.44;5053625;28;20562;-94
2022/11/04 03:01:13;;;;;;;20.30;11.73;;;;;;;14.89;100.00;97882.88;5055890;28;20052;-91
2022/11/04 03:03:45;;;;;;;24.02;11.98;;;;;;;14.83;100.00;97877.88;5055382;28;20044;-93
2022/11/04 03:06:14;;;;;;;23.02;12.55;;;;;;;14.75;100.00;97872.97;5053207;28;20049;-94
2022/11/04 03:08:44;;;;;;;19.30;11.25;;;;;;;14.75;100.00;97886.38;5059589;28;20102;-92
2022/11/04 03:11:13;;;;;;;23.23;12.02;;;;;;;14.77;100.00;97908.56;5088671;28;20131;-92
2022/11/04 03:13:45;;;;;;;26.85;12.32;;;;;;;14.67;100.00;97912.69;5085002;28;20047;-91
2022/11/04 03:16:16;;;;;;;21.10;11.65;;;;;;;14.55;100.00;97906.25;5088736;28;20047;-93
2022/11/04 03:18:51;;;;;;;20.55;11.65;;;;;;;14.68;100.00;97919.78;5087302;28;20123;-92
2022/11/04 03:21:19;;;;;;;23.48;12.48;;;;;;;14.65;100.00;97895.00;5090231;28;20048;-92
2022/11/04 03:23:45;;;;;;;21.67;12.30;;;;;;;14.51;100.00;97896.63;5088738;28;20044;-93
2022/11/04 03:26:20;;;;;;;25.42;12.57;;;;;;;14.69;100.00;97913.47;5086790;28;20449;-90
2022/11/04 03:28:53;;;;;;;26.10;13.73;;;;;;;14.63;100.00;97921.00;5081520;28;20036;-94
2022/11/04 03:31:24;;;;;;;27.00;14.27;;;;;;;14.73;100.00;97976.56;5080304;28;20060;-92
2022/11/04 03:33:52;;;;;;;32.10;14.93;;;;;;;14.65;100.00;97969.94;5083163;28;20052;-90
2022/11/04 03:36:21;;;;;;;30.08;14.80;;;;;;;14.42;100.00;97949.78;5080588;28;20047;-91
2022/11/04 03:38:47;;;;;;;24.75;12.25;;;;;;;14.52;100.00;97941.16;5079138;28;20045;-89
2022/11/04 03:41:20;;;;;;;22.85;11.75;;;;;;;14.53;100.00;97956.28;5081834;28;20056;-91
2022/11/04 03:43:46;;;;;;;24.00;12.52;;;;;;;14.62;100.00;97968.31;5079969;28;20409;-89
2022/11/04 03:46:12;;;;;;;25.25;12.43;;;;;;;14.54;100.00;97992.75;5082133;28;20028;-91
2022/11/04 03:48:40;;;;;;;26.30;11.82;;;;;;;14.59;100.00;97989.84;5082293;28;20123;-92
2022/11/04 03:51:08;;;;;;;35.95;12.68;;;;;;;14.60;100.00;97972.88;5081706;28;20075;-91
2022/11/04 03:53:35;;;;;;;34.60;13.07;;;;;;;14.50;100.00;97964.44;5079503;28;20043;-91
2022/11/04 03:56:19;;;;;;;29.88;12.15;;;;;;;14.45;100.00;97963.84;5079655;28;20040;-93
2022/11/04 03:58:58;;;;;;;19.38;9.57;;;;;;;14.56;100.00;97961.47;5082685;28;20043;-91
2022/11/04 04:01:29;;;;;;;17.50;8.88;;;;;;;14.45;100.00;97961.19;5077834;28;20045;-92
2022/11/04 04:04:04;;;;;;;19.05;8.70;;;;;;;14.57;100.00;97983.72;5081387;28;20032;-91
2022/11/04 04:06:33;;;;;;;18.17;7.72;;;;;;;14.68;100.00;97986.69;5081685;28;20044;-91
2022/11/04 04:09:07;;;;;;;18.15;8.38;;;;;;;14.78;100.00;97984.34;5081941;28;20051;-92
2022/11/04 04:11:43;;;;;;;16.67;8.60;;;;;;;14.82;100.00;97991.25;5081953;28;20042;-90
2022/11/04 04:14:38;;;;;;;17.40;9.10;;;;;;;14.74;100.00;97974.75;5079809;28;20036;-91
2022/11/04 04:17:07;;;;;;;15.30;9.02;;;;;;;14.84;100.00;97973.28;5078723;28;20420;-91
2022/11/04 04:19:35;;;;;;;17.23;8.45;;;;;;;14.78;100.00;97947.72;5082997;28;20063;-92
2022/11/04 04:36:16;;;;;;;7.43;3.47;;;;;;;14.62;100.00;97852.41;5027088;27;1436089;-94
2022/11/04 04:47:45;;;;;;;8.60;3.70;;;;;;;14.58;100.00;97830.28;5139099;27;20380;-93
2022/11/04 04:50:14;;;;;;;6.50;4.28;;;;;;;14.43;100.00;97802.59;5139661;28;20054;-94
2022/11/04 04:52:43;;;;;;;7.28;3.70;;;;;;;14.52;100.00;97823.44;5138959;28;20052;-94
2022/11/04 04:55:09;;;;;;;;;;;;;;;14.55;100.00;97836.69;5140189;28;20051;-94
2022/11/04 04:57:35;;;;;;;8.77;4.43;;;;;;;14.37;100.00;97818.97;5138605;28;20025;-94
2022/11/04 05:00:01;;;;;;;10.63;5.20;;;;;;;14.39;100.00;97851.84;5138103;28;20055;-95
2022/11/04 05:02:27;;;;;;;13.35;5.82;;;;;;;14.39;100.00;97865.22;5137930;28;20040;-94
2022/11/04 05:04:55;;;;;;;8.88;5.20;;;;;;;14.35;100.00;97863.66;5137141;28;20046;-95
2022/11/04 05:07:21;;;;;;;11.48;6.40;;;;;;;14.17;100.00;97826.34;5135599;28;20047;-95
2022/11/04 05:09:47;;;;;;;10.98;5.20;;;;;;;14.42;100.00;97846.34;5136419;28;20039;-92
2022/11/04 05:12:13;;;;;;;38.75;6.82;;;;;;;14.34;100.00;97868.16;5140870;27;20530;-96
2022/11/04 05:14:38;;;;;;;12.30;5.70;;;;;;;14.32;100.00;97890.59;5134258;28;20058;-94
2022/11/04 05:17:04;;;;;;;13.77;6.78;;;;;;;14.32;100.00;97904.84;5133972;28;20054;-94
2022/11/04 05:19:30;;;;;;;12.65;6.32;;;;;;;14.16;100.00;97870.06;5133849;28;20044;-94
2022/11/04 05:21:58;;;;;;;13.57;6.40;;;;;;;14.20;100.00;97870.75;5134151;28;20044;-95
2022/11/04 05:24:23;;;;;;;12.45;6.18;;;;;;;14.37;100.00;97894.72;5134089;28;20514;-92
2022/11/04 05:26:49;;;;;;;10.00;5.82;;;;;;;14.30;100.00;97871.09;5133655;28;20126;-94
2022/11/04 05:29:15;;;;;;;16.20;6.57;;;;;;;14.35;100.00;97885.06;5132791;28;20063;-95
2022/11/04 05:31:41;;;;;;;11.40;6.45;;;;;;;14.41;100.00;97890.06;5132561;28;20047;-95
2022/11/04 05:34:09;;;;;;;15.80;6.50;;;;;;;14.34;100.00;97884.22;5133916;28;20050;-96
2022/11/04 05:36:35;;;;;;;14.10;6.60;;;;;;;14.30;100.00;97877.31;5131923;28;20051;-93
2022/11/04 05:39:04;;;;;;;12.90;6.57;;;;;;;14.25;100.00;97857.13;5132725;28;20104;-93
2022/11/04 05:41:29;;;;;;;14.30;6.70;;;;;;;14.37;100.00;97886.69;5132655;28;20066;-93
2022/11/04 05:43:57;;;;;;;11.65;5.75;;;;;;;14.31;100.00;97870.13;5130581;28;20519;-94
2022/11/04 05:46:23;;;;;;;11.30;5.85;;;;;;;14.33;100.00;97854.88;5142424;27;20034;-95
2022/11/04 05:48:49;;;;;;;13.55;6.80;;;;;;;14.29;100.00;97861.34;5152779;27;20070;-93
2022/11/04 05:51:18;;;;;;;14.75;6.88;;;;;;;14.40;100.00;97880.34;5151517;27;20062;-94
2022/11/04 05:53:43;;;;;;;12.00;6.43;;;;;;;14.43;100.00;97863.25;5168195;27;20043;-94
2022/11/04 05:56:11;;;;;;;22.83;8.13;;;;;;;14.36;100.00;97858.25;5159896;27;20037;-94
2022/11/04 05:58:37;;;;;;;13.63;6.93;;;;;;;14.20;100.00;97833.31;5162107;27;20047;-93
2022/11/04 06:01:11;;;;;;;10.90;6.40;;;;;;;14.28;100.00;97849.78;5138626;27;20043;-95
2022/11/04 06:03:37;;;;;;;13.02;6.10;;;;;;;14.33;100.00;97850.41;5138957;27;20039;-94
2022/11/04 06:06:04;;;;;;;12.55;6.45;;;;;;;14.30;100.00;97865.75;5138297;27;20038;-93
2022/11/04 06:08:30;;;;;;;11.60;6.22;;;;;;;14.36;100.00;97865.41;5138359;27;20051;-94
2022/11/04 06:10:56;;;;;;;9.60;6.40;;;;;;;14.26;100.00;97848.16;5138700;27;20518;-94
2022/11/04 06:13:23;;;;;;;15.05;6.65;;;;;;;14.30;100.00;97852.38;5139814;27;20047;-94
2022/11/04 06:15:49;;;;;;;15.05;6.70;;;;;;;14.34;100.00;97864.63;5141275;27;20043;-94
2022/11/04 06:18:15;;;;;;;16.02;6.63;;;;;;;14.26;100.00;97843.66;5139829;27;20047;-94
2022/11/04 06:20:41;;;;;;;12.02;6.40;;;;;;;14.25;100.00;97827.69;5138456;27;20035;-95
2022/11/04 06:23:07;;;;;;;11.73;6.57;;;;;;;14.26;100.00;97824.09;5139087;27;20046;-96
2022/11/04 06:25:33;;;;;;;15.73;7.10;;;;;;;14.32;100.00;97837.13;5138523;27;20056;-94
2022/11/04 06:27:58;;;;;;;13.30;7.03;;;;;;;14.36;100.00;97834.19;5140654;27;20088;-94
2022/11/04 06:30:26;;;;;;;14.32;7.13;;;;;;;14.49;100.00;97839.69;5139510;27;20035;-94
2022/11/04 06:32:52;;;;;;;16.35;7.65;;;;;;;14.44;100.00;97831.03;5138934;27;20074;-95
2022/11/04 06:35:18;;;;;;;14.48;7.88;;;;;;;14.41;100.00;97806.31;5139868;27;20035;-95
2022/11/04 06:37:43;;;;;;;15.10;7.55;;;;;;;14.54;100.00;97818.88;5143696;27;20043;-94
2022/11/04 06:40:10;;;;;;;14.77;7.55;;;;;;;14.67;100.00;97815.50;5145850;27;20039;-94
2022/11/04 06:42:36;;;;;;;16.08;7.93;;;;;;;14.72;100.00;97810.75;5137238;27;20043;-94
2022/11/04 06:45:02;;;;;;;15.50;7.70;;;;;;;14.77;100.00;97830.09;5137785;27;20031;-93
2022/11/04 06:47:29;;;;;;;14.43;8.30;;;;;;;14.79;100.00;97814.78;5136614;27;20500;-94
2022/11/04 06:49:55;;;;;;;18.00;9.75;;;;;;;14.88;100.00;97798.19;5137002;27;20039;-95
2022/11/04 06:52:21;;;;;;;14.70;9.00;;;;;;;14.89;100.00;97783.81;5137051;27;20104;-93
2022/11/04 06:54:47;;;;;;;14.88;8.73;;;;;;;14.82;100.00;97793.19;5136530;27;20058;-94
2022/11/04 06:57:13;;;;;;;22.13;9.65;;;;;;;14.76;100.00;97782.84;5137380;27;20027;-95
2022/11/04 06:59:39;;;;;;;19.30;9.13;;;;;;;14.81;100.00;97779.88;5138286;27;20064;-96
2022/11/04 07:02:05;;;;;;;22.08;10.52;;;;;;;14.88;100.00;97797.31;5137118;27;20147;-94
2022/11/04 07:04:32;;;;;;;20.52;10.07;;;;;;;14.90;100.00;97792.75;5136588;27;20040;-96
2022/11/04 07:06:58;;;;;;;20.30;9.70;;;;;;;15.04;100.00;97802.59;5136448;27;20031;-93
2022/11/04 07:09:23;;;;;;;18.45;10.07;;;;;;;15.03;100.00;97795.50;5134698;27;20054;-94
2022/11/04 07:11:49;;;;;;;21.02;9.95;;;;;;;15.02;100.00;97783.94;5137099;27;20572;-94
2022/11/04 07:14:15;;;;;;;17.13;9.82;;;;;;;15.27;100.00;97793.19;5136896;27;20057;-95
2022/11/04 07:16:41;;;;;;;23.05;10.35;;;;;;;15.19;100.00;97799.00;5137686;27;20122;-94
2022/11/04 07:19:07;;;;;;;18.67;9.63;;;;;;;15.12;100.00;97794.97;5137235;27;20036;-94
2022/11/04 07:21:34;;;;;;;19.73;9.93;;;;;;;15.01;100.00;97787.59;5137382;27;20065;-94
2022/11/04 07:24:01;;;;;;;18.23;10.23;;;;;;;14.98;100.00;97795.78;5137205;27;20035;-94
2022/11/04 07:26:27;;;;;;;23.77;11.27;;;;;;;14.99;100.00;97811.78;5137823;27;20039;-93
2022/11/04 07:28:53;;;;;;;20.80;11.63;;;;;;;15.03;100.00;97827.63;5137377;27;20046;-94
2022/11/04 07:31:19;;;;;;;20.77;11.35;;;;;;;14.91;100.00;97806.00;5137128;27;20395;-95
2022/11/04 07:33:48;;;;;;;24.90;11.13;;;;;;;15.05;100.00;97831.09;5136487;27;20046;-94
2022/11/04 07:36:15;;;;;;;22.80;10.93;;;;;;;15.06;100.00;97827.47;5138279;27;20043;-94
2022/11/04 07:38:43;;;;;;;24.15;11.27;;;;;;;15.10;100.00;97823.66;5138302;27;20043;-94
2022/11/04 07:41:09;;;;;;;20.75;11.18;;;;;;;15.04;100.00;97807.97;5137930;27;20047;-94
2022/11/04 07:43:35;;;;;;;22.48;11.75;;;;;;;15.12;100.00;97833.31;5139367;27;20081;-94
2022/11/04 07:46:04;;;;;;;27.58;12.05;;;;;;;15.18;100.00;97854.38;5141602;27;20039;-94
2022/11/04 07:48:30;;;;;;;24.25;12.80;;;;;;;15.22;100.00;97825.56;5128376;27;20058;-95
2022/11/04 07:50:58;;;;;;;23.23;11.93;;;;;;;15.23;100.00;97813.91;5128100;27;20392;-93
2022/11/04 07:53:24;;;;;;;24.85;12.15;;;;;;;15.31;100.00;97802.72;5140748;27;20039;-94
2022/11/04 07:55:52;;;;;;;28.08;12.45;;;;;;;15.55;100.00;97825.31;5125906;27;20058;-94
2022/11/04 07:58:18;;;;;;;27.58;13.20;;;;;;;15.57;100.00;97815.38;5119779;28;20119;-94
2022/11/04 08:00:44;;;;;;;25.17;13.73;;;;;;;15.65;100.00;97808.66;5123013;27;20549;-93
2022/11/04 08:03:10;;;;;;;27.02;12.88;;;;;;;15.64;100.00;97825.72;5127728;27;20036;-94
2022/11/04 08:05:36;;;;;;;29.20;14.40;;;;;;;15.70;100.00;97815.47;5132442;27;20043;-93
2022/11/04 08:08:02;;;;;;;32.72;14.55;;;;;;;15.70;100.00;97819.94;5123425;27;20048;-94
2022/11/04 08:10:29;;;;;;;26.67;13.43;;;;;;;15.75;100.00;97821.41;5126575;27;20043;-94
2022/11/04 08:13:00;;;;;;;24.92;13.82;;;;;;;15.82;100.00;97821.88;5145308;27;20062;-95
2022/11/04 08:15:31;;;;;;;26.13;13.07;;;;;;;15.76;100.00;97809.72;5145608;27;21018;-95
2022/11/04 08:17:57;;;;;;;24.33;12.77;;;;;;;15.78;100.00;97801.59;5143628;27;20050;-93
2022/11/04 08:20:24;;;;;;;25.50;12.82;;;;;;;15.73;100.00;97796.53;5144559;27;20047;-95
2022/11/04 08:22:49;;;;;;;23.58;11.82;;;;;;;15.76;100.00;97808.88;5141693;27;20081;-95
2022/11/04 08:25:15;;;;;;;24.73;13.85;;;;;;;15.56;100.00;97775.28;5148146;27;20039;-95
2022/11/04 08:27:42;;;;;;;21.75;13.93;;;;;;;15.61;100.00;97773.16;5149134;27;20043;-94
2022/11/04 08:30:11;;;;;;;25.55;14.10;;;;;;;15.60;100.00;97782.16;5148822;27;20054;-95
2022/11/04 08:32:37;;;;;;;28.70;12.85;;;;;;;15.52;100.00;97766.56;5148695;27;20051;-95
2022/11/04 08:35:04;;;;;;;31.52;14.00;;;;;;;15.48;100.00;97759.66;5149062;27;20043;-95
2022/11/04 08:37:31;;;;;;;23.95;13.73;;;;;;;15.62;100.00;97780.25;5148573;27;20034;-95
2022/11/04 08:39:56;;;;;;;25.80;13.95;;;;;;;15.77;100.00;97798.06;5146979;27;20039;-93
2022/11/04 08:42:23;;;;;;;28.42;14.60;;;;;;;15.69;100.00;97761.94;5150156;27;20072;-96
2022/11/04 08:44:50;;;;;;;27.98;14.30;;;;;;;15.82;100.00;97779.00;5140629;28;20051;-95
2022/11/04 08:47:19;;;;;;;26.40;13.50;;;;;;;15.86;100.00;97782.34;5151625;28;20054;-96
2022/11/04 08:49:45;;;;;;;25.77;13.43;;;;;;;15.70;100.00;97753.81;5150925;28;20046;-95
2022/11/04 08:52:12;;;;;;;24.10;13.63;;;;;;;15.87;100.00;97786.75;5152305;27;20036;-95
2022/11/04 08:54:38;;;;;;;27.30;13.82;;;;;;;15.63;100.00;97739.06;5149667;28;20054;-95
2022/11/04 08:57:05;;;;;;;31.23;13.65;;;;;;;15.57;100.00;97744.81;5148985;27;20107;-95
2022/11/04 08:59:31;;;;;;;30.80;13.55;;;;;;;15.50;100.00;97738.13;5149966;27;20103;-95
2022/11/04 09:01:58;;;;;;;31.08;14.40;;;;;;;15.49;100.00;97744.47;5152751;28;20072;-95
2022/11/04 09:04:26;;;;;;;34.53;16.45;;;;;;;15.56;100.00;97805.59;5152640;28;20096;-95
2022/11/04 09:06:55;;;;;;;38.65;16.58;;;;;;;15.39;100.00;97768.28;5148301;28;20043;-95
2022/11/04 09:09:21;;;;;;;33.50;15.93;;;;;;;15.44;100.00;97763.53;5138261;28;20059;-95
2022/11/04 09:11:47;;;;;;;38.85;15.45;;;;;;;15.29;100.00;97748.38;5134841;28;20040;-95
2022/11/04 09:14:13;;;;;;;27.10;13.93;;;;;;;15.30;100.00;97740.25;5127899;28;20046;-95
2022/11/04 09:16:40;;;;;;;25.90;12.45;;;;;;;15.18;100.00;97741.91;5129433;28;20067;-93
2022/11/04 09:19:07;;;;;;;31.55;15.15;;;;;;;15.08;100.00;97697.91;5129172;28;20046;-94
2022/11/04 09:21:34;;;;;;;25.33;13.75;;;;;;;15.22;100.00;97739.88;5123423;28;20065;-95
2022/11/04 09:24:00;;;;;;;27.77;12.93;;;;;;;15.22;100.00;97725.63;5117311;28;20043;-93
2022/11/04 09:26:27;;;;;;;23.23;11.48;;;;;;;15.09;100.00;97704.09;5128530;28;20092;-94
2022/11/04 09:28:53;;;;;;;19.63;9.98;;;;;;;15.23;100.00;97725.53;5129826;28;20094;-94
2022/11/04 09:31:20;;;;;;;21.90;10.98;;;;;;;15.04;100.00;97706.22;5134399;28;20246;-93
2022/11/04 09:33:46;;;;;;;23.50;12.32;;;;;;;15.02;100.00;97705.44;5129197;27;20047;-95
2022/11/04 09:36:13;;;;;;;20.42;8.57;;;;;;;15.02;100.00;97734.91;5129909;27;20384;-95
2022/11/04 09:38:41;;;;;;;11.40;6.45;;;;;;;14.69;100.00;97722.63;5133223;27;20040;-95
2022/11/04 09:41:22;;;;;;;10.45;5.55;;;;;;;14.72;100.00;97733.13;5138371;27;20067;-96
2022/11/04 09:43:57;;;;;;;9.27;4.95;;;;;;;14.76;100.00;97730.19;5129758;27;20046;-94
2022/11/04 09:46:25;;;;;;;9.95;4.45;;;;;;;14.70;100.00;97751.09;5143560;27;20047;-94
2022/11/04 09:48:55;;;;;;;8.95;3.80;;;;;;;14.65;100.00;97738.00;5141428;27;20071;-92
2022/11/04 09:51:25;;;;;;;14.05;4.30;;;;;;;14.72;100.00;97744.69;5139136;27;20039;-93
2022/11/04 09:53:58;;;;;;;9.07;3.85;;;;;;;14.86;100.00;97764.44;5142264;27;20039;-93
2022/11/04 09:56:31;;;;;;;7.97;3.80;;;;;;;14.76;100.00;97734.69;5127697;27;20035;-95
2022/11/04 09:58:57;;;;;;;6.55;3.63;;;;;;;14.87;100.00;97728.66;5135384;27;20038;-94
2022/11/04 10:01:29;;;;;;;8.57;4.00;;;;;;;15.09;100.00;97746.94;5137051;27;20047;-94
2022/11/04 10:04:09;;;;;;;9.20;3.90;;;;;;;15.12;100.00;97720.84;5130227;27;20119;-94
2022/11/04 10:06:51;;;;;;;8.65;3.45;;;;;;;15.04;100.00;97698.19;5122203;28;20043;-94
2022/11/04 10:09:29;;;;;;;9.18;3.78;;;;;;;15.49;100.00;97721.22;5122388;28;20044;-94
2022/11/04 10:12:04;;;;;;;7.15;3.97;;;;;;;15.58;100.00;97717.06;5127409;27;20051;-95
2022/11/04 10:14:46;;;;;;;9.52;4.13;;;;;;;15.67;100.00;97710.25;5106280;28;20052;-94
2022/11/04 10:17:34;;;;;;;11.18;6.15;;;;;;;15.75;100.00;97721.41;5107166;28;20044;-94
2022/11/04 10:20:17;;;;;;;16.10;7.88;;;;;;;15.71;100.00;97707.31;5107641;28;20055;-96
2022/11/04 10:22:56;;;;;;;13.88;6.00;;;;;;;15.68;100.00;97711.97;5105669;28;20048;-95
2022/11/04 10:25:24;;;;;;;;;;;;;;;15.82;100.00;97745.00;5133952;27;20047;-95
2022/11/04 10:27:51;;;;;;;13.15;7.03;;;;;;;15.66;100.00;97704.06;5148137;27;19923;-94
2022/11/04 10:30:23;;;;;;;11.70;6.65;;;;;;;15.76;100.00;97698.97;5147828;27;20082;-96
2022/11/04 10:33:00;;;;;;;10.15;5.88;;;;;;;15.64;100.00;97679.19;5130070;27;20078;-95
2022/11/04 10:35:31;;;;;;;14.40;7.57;;;;;;;15.59;100.00;97679.47;5125143;28;20535;-96
2022/11/04 10:38:12;;;;;;;16.25;7.95;;;;;;;15.83;100.00;97694.94;5121364;28;20071;-96
2022/11/04 10:40:44;;;;;;;14.90;9.05;;;;;;;15.67;100.00;97680.78;5120813;28;20519;-96
2022/11/04 10:43:14;;;;;;;16.20;8.68;;;;;;;15.65;100.00;97680.88;5124893;28;20113;-95
2022/11/04 10:45:48;;;;;;;16.65;8.15;;;;;;;15.72;100.00;97716.22;5128045;28;20103;-94
2022/11/04 10:48:23;;;;;;;14.90;7.72;;;;;;;15.65;100.00;97713.03;5129382;28;20039;-96
2022/11/04 10:50:52;;;;;;;13.50;6.70;;;;;;;15.71;100.00;97727.88;5128491;28;20481;-95
2022/11/04 10:53:22;;;;;;;15.68;5.75;;;;;;;15.68;100.00;97694.09;5128796;28;20106;-96
2022/11/04 11:21:11;;;;;;;5.97;2.30;;;;;;;16.62;76.50;97702.13;5108954;28;20027;-96
2022/11/04 11:23:40;;;;;;;5.57;2.28;;;;;;;16.43;78.07;97680.19;5114988;28;20027;-94
2022/11/04 11:26:08;;;;;;;7.97;2.88;;;;;;;16.66;78.55;97697.41;5124043;28;20059;-95
2022/11/04 11:32:00;;;;;;;7.63;2.40;;;;;;;16.60;75.37;97695.16;5107883;28;20035;-94
2022/11/04 11:34:28;;;;;;;;;;;;;;;16.68;75.98;97729.53;5110735;28;20056;-95
2022/11/04 11:44:22;;;;;;;8.98;2.33;;;;;;;16.72;76.12;97725.66;5112136;28;20111;-95
2022/11/04 11:50:17;;;;;;;6.60;2.20;;;;;;;16.71;75.35;97671.09;5108892;28;20072;-96
2022/11/04 11:52:45;;;;;;;5.82;2.00;;;;;;;16.67;70.99;97668.75;5107450;28;20074;-96
2022/11/04 11:55:22;;;;;;;10.25;2.10;;;;;;;16.67;71.53;97672.28;5105046;28;20040;-94
2022/11/04 11:58:04;;;;;;;5.18;2.03;;;;;;;16.71;71.06;97670.25;5105878;28;20097;-93
2022/11/04 12:00:37;;;;;;;12.68;2.30;;;;;;;16.70;71.77;97664.03;5104722;28;20052;-95
2022/11/04 12:03:14;;;;;;;5.53;1.88;;;;;;;16.75;73.48;97671.75;5102171;28;20181;-94
2022/11/04 12:09:15;;;;;;;8.30;2.42;;;;;;;16.80;72.22;97691.97;5082004;28;20052;-94
2022/11/04 12:20:29;;;;;;;8.68;2.08;;;;;;;16.90;71.81;97686.84;5077144;28;20032;-94
2022/11/04 12:23:04;;;;;;;8.90;2.03;;;;;;;16.97;74.29;97663.09;5079444;28;20121;-93
2022/11/04 12:29:06;;;;;;;10.68;2.10;;;;;;;17.12;70.18;97674.56;5085145;28;20453;-95
2022/11/04 12:31:40;;;;;;;12.25;2.35;;;;;;;17.14;71.72;97670.81;5075877;28;20051;-94
2022/11/04 12:34:16;;;;;;;5.03;2.10;;;;;;;17.09;71.67;97664.91;5078938;28;20040;-94
2022/11/04 12:36:58;;;;;;;7.93;2.28;;;;;;;17.16;73.56;97660.81;5081834;28;20044;-91
2022/11/04 12:39:38;;;;;;;5.97;2.78;;;;;;;17.23;72.87;97670.13;5084431;28;20037;-92
2022/11/04 12:55:41;;;;;;;11.75;3.03;;;;;;;17.08;72.26;97656.94;5083798;28;20154;-92
2022/11/04 12:58:28;;;;;;;9.27;3.20;;;;;;;17.03;68.00;97662.66;5092542;28;20036;-94
2022/11/04 13:07:43;;;;;;;7.97;2.17;;;;;;;17.02;72.80;97632.25;5074882;28;20032;-92
2022/11/04 13:10:18;;;;;;;9.20;2.33;;;;;;;17.10;71.55;97638.91;5078211;28;20414;-94
2022/11/04 13:20:25;;;;;;;7.90;2.22;;;;;;;16.99;74.38;97632.47;5098689;28;20032;-92
2022/11/04 13:26:14;;;;;;;9.07;2.63;;;;;;;17.01;75.82;97646.66;5098472;28;20067;-94
2022/11/04 13:32:07;;;;;;;9.05;2.95;;;;;;;17.06;73.19;97632.03;5098135;28;20040;-92
2022/11/04 13:38:01;;;;;;;7.32;2.67;;;;;;;17.20;73.00;97621.16;5098588;28;20376;-94
2022/11/04 13:40:39;;;;;;;11.30;2.30;;;;;;;17.22;70.65;97608.47;5098771;28;20432;-94
2022/11/04 13:49:50;;;;;;;9.25;2.30;;;;;;;16.94;69.28;97601.56;5097870;28;20046;-93
2022/11/04 13:52:17;;;;;;;9.23;2.30;;;;;;;16.84;70.03;97596.81;5098702;28;20056;-93
2022/11/04 13:55:03;;;;;;;7.35;2.17;;;;;;;16.81;72.73;97601.56;5098339;28;20086;-95